Time;durP1;ratioP1;P1;durP2;ratioP2;P2;SDS_P1;SDS_P2;PMS_P1;PMS_P2;Temp;Humidity;BMP_temperature;BMP_pressure;BME280_temperature;BME280_humidity;BME280_pressure;Samples;Min_cycle;Max_cycle;Signal;HPM_P1;HPM_P2
2023/07/05 00:01:36;;;;;;;0.00;0.00;;;14.80;99.90;;;;;;5001345;28;20054;-66
2023/07/05 00:04:02;;;;;;;0.00;0.00;;;14.80;99.90;;;;;;5004881;28;20075;-67
2023/07/05 00:06:28;;;;;;;0.28;0.28;;;14.70;99.90;;;;;;5000814;28;20041;-67
2023/07/05 00:08:53;;;;;;;0.20;0.15;;;14.70;99.90;;;;;;5006471;28;20096;-67
2023/07/05 00:11:20;;;;;;;0.00;0.00;;;14.70;99.90;;;;;;5004613;28;20065;-67
2023/07/05 00:13:46;;;;;;;0.47;0.22;;;14.70;99.90;;;;;;5007093;28;20228;-66
2023/07/05 00:16:12;;;;;;;0.13;0.10;;;14.70;99.90;;;;;;4997396;28;20052;-67
2023/07/05 00:18:38;;;;;;;1.13;0.20;;;14.70;99.90;;;;;;4993190;28;20054;-67
2023/07/05 00:21:07;;;;;;;0.65;0.32;;;14.70;99.90;;;;;;5004259;28;20405;-68
2023/07/05 00:23:34;;;;;;;1.27;0.03;;;14.70;99.90;;;;;;5000566;28;20100;-67
2023/07/05 00:26:04;;;;;;;0.00;0.00;;;14.70;99.90;;;;;;5006575;28;20074;-67
2023/07/05 00:28:33;;;;;;;0.20;0.10;;;14.70;99.90;;;;;;4999227;28;20386;-67
2023/07/05 00:30:59;;;;;;;0.08;0.08;;;14.70;99.90;;;;;;5001897;28;20077;-68
2023/07/05 00:33:25;;;;;;;0.52;0.22;;;14.70;99.90;;;;;;5000463;28;20480;-67
2023/07/05 00:35:53;;;;;;;0.40;0.13;;;14.70;99.90;;;;;;5003568;28;20117;-68
2023/07/05 00:38:20;;;;;;;0.95;0.40;;;14.70;99.90;;;;;;4994820;28;20046;-67
2023/07/05 00:40:46;;;;;;;0.75;0.22;;;14.70;99.90;;;;;;5002222;28;20073;-67
2023/07/05 00:43:13;;;;;;;5.43;0.50;;;14.70;99.90;;;;;;5002934;28;20041;-67
2023/07/05 00:45:58;;;;;;;0.30;0.30;;;14.70;99.90;;;;;;5002436;28;20042;-68
2023/07/05 00:48:43;;;;;;;0.10;0.00;;;14.70;99.90;;;;;;5005478;28;20068;-68
2023/07/05 00:51:22;;;;;;;0.98;0.30;;;14.70;99.90;;;;;;5000243;28;20050;-68
2023/07/05 00:53:48;;;;;;;0.65;0.17;;;14.70;99.90;;;;;;5004915;28;20052;-67
2023/07/05 00:56:28;;;;;;;0.20;0.10;;;14.80;99.90;;;;;;4998015;28;20378;-67
2023/07/05 00:58:55;;;;;;;0.10;0.10;;;14.80;99.90;;;;;;4997445;28;20042;-68
2023/07/05 01:01:21;;;;;;;0.57;0.38;;;14.80;99.90;;;;;;5001506;28;20046;-67
2023/07/05 01:03:51;;;;;;;0.85;0.28;;;14.80;99.90;;;;;;4996684;28;20034;-68
2023/07/05 01:06:21;;;;;;;0.82;0.20;;;14.80;99.90;;;;;;4995209;28;20082;-67
2023/07/05 01:08:47;;;;;;;3.13;0.28;;;14.80;99.90;;;;;;4996763;28;20615;-67
2023/07/05 01:11:49;;;;;;;0.93;0.20;;;14.80;99.90;;;;;;5000039;28;20046;-68
2023/07/05 01:14:23;;;;;;;0.95;0.30;;;14.70;99.90;;;;;;5005617;28;20030;-68
2023/07/05 01:16:49;;;;;;;0.15;0.13;;;14.70;99.90;;;;;;4992546;28;20168;-68
2023/07/05 01:19:40;;;;;;;2.05;0.88;;;14.70;99.90;;;;;;5001292;28;20136;-67
2023/07/05 01:22:13;;;;;;;0.43;0.40;;;14.60;99.90;;;;;;4996631;28;20406;-66
2023/07/05 01:24:53;;;;;;;0.57;0.30;;;14.70;99.90;;;;;;5002971;28;20353;-66
2023/07/05 01:27:57;;;;;;;0.60;0.32;;;14.60;99.90;;;;;;4995906;28;20053;-67
2023/07/05 01:30:50;;;;;;;0.43;0.30;;;14.50;99.90;;;;;;5008019;28;20078;-65
2023/07/05 01:33:27;;;;;;;0.90;0.20;;;14.50;99.90;;;;;;4998602;28;20510;-65
2023/07/05 01:35:54;;;;;;;1.73;0.60;;;14.40;99.90;;;;;;5003743;28;20052;-64
2023/07/05 01:38:20;;;;;;;1.15;0.43;;;14.40;99.90;;;;;;5002550;28;20038;-65
2023/07/05 01:40:56;;;;;;;1.02;0.50;;;14.40;99.90;;;;;;5003724;28;20694;-65
2023/07/05 01:43:23;;;;;;;1.17;0.77;;;14.40;99.90;;;;;;5009153;28;20042;-65
2023/07/05 01:46:22;;;;;;;1.77;0.77;;;14.30;99.90;;;;;;5001227;28;20053;-66
2023/07/05 01:49:23;;;;;;;0.20;0.20;;;14.30;99.90;;;;;;5000820;28;20077;-65
2023/07/05 01:52:09;;;;;;;0.20;0.10;;;14.30;99.90;;;;;;5003848;28;20116;-65
2023/07/05 01:54:39;;;;;;;0.00;0.00;;;14.20;99.90;;;;;;4994892;28;20080;-65
2023/07/05 01:57:16;;;;;;;0.10;0.10;;;14.20;99.90;;;;;;5001826;28;20117;-65
2023/07/05 01:59:57;;;;;;;0.00;0.00;;;14.20;99.90;;;;;;4998159;28;20042;-64
2023/07/05 02:02:29;;;;;;;0.80;0.63;;;14.20;99.90;;;;;;4998607;28;20030;-64
2023/07/05 02:04:57;;;;;;;0.80;0.40;;;14.20;99.90;;;;;;5005158;28;20638;-65
2023/07/05 02:07:27;;;;;;;0.20;0.20;;;14.20;99.90;;;;;;5004719;28;20112;-64
2023/07/05 02:09:54;;;;;;;0.63;0.43;;;14.20;99.90;;;;;;5001792;28;20478;-65
2023/07/05 02:12:19;;;;;;;0.80;0.52;;;14.20;99.90;;;;;;4996745;28;20199;-66
2023/07/05 02:14:45;;;;;;;0.98;0.63;;;14.20;99.90;;;;;;5002002;28;20694;-66
2023/07/05 02:17:12;;;;;;;1.00;0.43;;;14.20;99.90;;;;;;5003223;28;20121;-65
2023/07/05 02:19:38;;;;;;;2.63;0.75;;;14.10;99.90;;;;;;5000272;28;20482;-65
2023/07/05 02:22:04;;;;;;;0.60;0.30;;;14.10;99.90;;;;;;5004996;28;20030;-66
2023/07/05 02:24:30;;;;;;;2.45;0.82;;;14.10;99.90;;;;;;5002096;28;20038;-66
2023/07/05 02:26:55;;;;;;;0.85;0.70;;;14.10;99.90;;;;;;5001295;28;20037;-65
2023/07/05 02:29:22;;;;;;;3.25;1.02;;;14.10;99.90;;;;;;5004298;28;20041;-65
2023/07/05 02:31:48;;;;;;;1.05;0.43;;;14.10;99.90;;;;;;4995408;28;20042;-65
2023/07/05 02:34:14;;;;;;;2.00;0.98;;;14.10;99.90;;;;;;5001061;28;20038;-65
2023/07/05 02:36:40;;;;;;;1.17;1.08;;;14.10;99.90;;;;;;5002168;28;20050;-65
2023/07/05 02:39:06;;;;;;;0.57;0.45;;;14.10;99.90;;;;;;5003003;28;20038;-66
2023/07/05 02:41:31;;;;;;;1.67;0.95;;;14.10;99.90;;;;;;4993942;28;20050;-65
2023/07/05 02:43:57;;;;;;;3.65;1.45;;;14.20;99.90;;;;;;4999433;28;20398;-65
2023/07/05 02:46:25;;;;;;;2.38;0.77;;;14.20;99.90;;;;;;4999101;28;20038;-67
2023/07/05 02:48:55;;;;;;;2.00;1.45;;;14.10;99.90;;;;;;5007867;28;20054;-63
2023/07/05 02:51:21;;;;;;;1.90;0.85;;;14.10;99.90;;;;;;4998039;28;20540;-62
2023/07/05 02:53:46;;;;;;;0.98;0.60;;;14.10;99.90;;;;;;4997600;28;20054;-62
2023/07/05 02:56:13;;;;;;;2.05;0.80;;;14.10;99.90;;;;;;4996896;28;20087;-62
2023/07/05 02:58:39;;;;;;;0.50;0.50;;;14.10;99.90;;;;;;4999224;28;20074;-64
2023/07/05 03:01:05;;;;;;;1.27;0.63;;;14.10;99.90;;;;;;4997264;28;20065;-64
2023/07/05 03:03:31;;;;;;;0.82;0.65;;;14.00;99.90;;;;;;5001625;28;20046;-64
2023/07/05 03:05:58;;;;;;;2.58;0.77;;;14.10;99.90;;;;;;5002871;28;20038;-68
2023/07/05 03:08:25;;;;;;;1.48;0.90;;;14.10;99.90;;;;;;5004007;28;20052;-63
2023/07/05 03:10:55;;;;;;;1.45;0.68;;;14.10;99.90;;;;;;4995167;28;20690;-64
2023/07/05 03:13:32;;;;;;;1.65;0.85;;;14.10;99.90;;;;;;4984772;28;20042;-63
2023/07/05 03:15:58;;;;;;;1.98;0.82;;;14.20;99.90;;;;;;4997544;28;20046;-64
2023/07/05 03:18:25;;;;;;;1.77;0.93;;;14.10;99.90;;;;;;4994643;28;20138;-64
2023/07/05 03:20:51;;;;;;;0.93;0.80;;;14.10;99.90;;;;;;5001618;28;20088;-63
2023/07/05 03:23:17;;;;;;;0.90;0.70;;;14.20;99.90;;;;;;5001967;28;20077;-64
2023/07/05 03:25:56;;;;;;;0.93;0.70;;;14.20;99.90;;;;;;4992805;28;20038;-64
2023/07/05 03:28:23;;;;;;;0.85;0.57;;;14.20;99.90;;;;;;5005254;28;20334;-64
2023/07/05 03:30:55;;;;;;;0.77;0.73;;;14.20;99.90;;;;;;5008334;28;20050;-63
2023/07/05 03:33:21;;;;;;;1.98;0.73;;;14.30;99.90;;;;;;5004504;28;20749;-63
2023/07/05 03:35:58;;;;;;;0.55;0.28;;;14.30;99.90;;;;;;5003258;28;20065;-63
2023/07/05 03:38:25;;;;;;;1.10;0.77;;;14.30;99.90;;;;;;5002499;28;20438;-63
2023/07/05 03:41:02;;;;;;;0.25;0.20;;;14.30;99.90;;;;;;5007099;28;20052;-64
2023/07/05 03:43:29;;;;;;;0.30;0.25;;;14.30;99.90;;;;;;5003049;28;20049;-63
2023/07/05 03:45:59;;;;;;;0.82;0.25;;;14.40;99.90;;;;;;5003580;28;20065;-63
2023/07/05 03:48:25;;;;;;;0.20;0.20;;;14.40;99.90;;;;;;4998656;28;20121;-63
2023/07/05 03:50:54;;;;;;;0.20;0.20;;;14.50;99.90;;;;;;5000138;28;20141;-64
2023/07/05 03:53:20;;;;;;;0.05;0.05;;;14.50;99.90;;;;;;5017441;28;20079;-64
2023/07/05 03:55:46;;;;;;;0.20;0.20;;;14.60;99.90;;;;;;5001163;28;20045;-64
2023/07/05 03:58:11;;;;;;;0.43;0.17;;;14.60;99.90;;;;;;4997494;28;20525;-65
2023/07/05 04:00:37;;;;;;;0.30;0.28;;;14.70;99.90;;;;;;5004138;28;20586;-65
2023/07/05 04:03:03;;;;;;;0.20;0.05;;;14.80;99.90;;;;;;5004111;28;20125;-65
2023/07/05 04:05:28;;;;;;;0.10;0.10;;;14.80;99.90;;;;;;5008696;28;20038;-65
2023/07/05 04:07:54;;;;;;;0.60;0.45;;;14.80;99.90;;;;;;4998784;28;20089;-64
2023/07/05 04:10:20;;;;;;;1.35;0.80;;;14.80;99.90;;;;;;5002138;28;20552;-65
2023/07/05 04:12:45;;;;;;;0.20;0.15;;;14.90;99.90;;;;;;5003550;28;20049;-65
2023/07/05 04:15:11;;;;;;;1.42;0.70;;;14.90;99.90;;;;;;4995272;28;20062;-64
2023/07/05 04:17:37;;;;;;;2.33;0.95;;;14.90;99.90;;;;;;5002742;28;20041;-65
2023/07/05 04:20:03;;;;;;;1.02;0.60;;;14.90;99.90;;;;;;5006201;28;20033;-66
2023/07/05 04:22:35;;;;;;;1.33;0.50;;;14.90;99.90;;;;;;5004805;28;20157;-64
2023/07/05 04:25:02;;;;;;;0.82;0.52;;;14.90;99.90;;;;;;5000298;28;20505;-64
2023/07/05 04:27:27;;;;;;;0.45;0.30;;;14.90;99.90;;;;;;5004302;28;20054;-64
2023/07/05 04:29:53;;;;;;;1.23;0.55;;;15.00;99.90;;;;;;5005725;28;20057;-64
2023/07/05 04:32:19;;;;;;;0.50;0.30;;;15.00;99.90;;;;;;5005228;28;20030;-65
2023/07/05 04:34:44;;;;;;;0.60;0.32;;;15.00;99.90;;;;;;4996161;28;20042;-64
2023/07/05 04:37:10;;;;;;;0.35;0.20;;;14.90;99.90;;;;;;5005793;28;20377;-64
2023/07/05 04:39:36;;;;;;;1.27;0.28;;;14.90;99.90;;;;;;5001389;28;20030;-64
2023/07/05 04:42:01;;;;;;;1.15;0.47;;;14.80;99.90;;;;;;5005596;28;20422;-64
2023/07/05 04:44:27;;;;;;;0.60;0.22;;;14.70;99.90;;;;;;5005339;28;20042;-64
2023/07/05 04:46:53;;;;;;;0.77;0.22;;;14.70;99.90;;;;;;5002868;28;20034;-64
2023/07/05 04:49:18;;;;;;;0.20;0.20;;;14.70;99.90;;;;;;5003635;28;20046;-64
2023/07/05 04:51:44;;;;;;;0.20;0.10;;;14.60;99.90;;;;;;5002387;28;20053;-64
2023/07/05 04:54:10;;;;;;;0.08;0.08;;;14.60;99.90;;;;;;5000762;28;20434;-65
2023/07/05 04:56:36;;;;;;;0.65;0.40;;;14.50;99.90;;;;;;4999880;28;20109;-65
2023/07/05 04:59:02;;;;;;;0.73;0.20;;;14.40;99.90;;;;;;4998782;28;20117;-65
2023/07/05 05:01:28;;;;;;;0.73;0.30;;;14.20;99.90;;;;;;5007476;28;20121;-66
2023/07/05 05:03:53;;;;;;;0.68;0.20;;;14.20;99.90;;;;;;4999735;28;20370;-65
2023/07/05 05:06:19;;;;;;;0.47;0.20;;;14.10;99.90;;;;;;5004516;28;20553;-65
2023/07/05 05:08:45;;;;;;;0.63;0.30;;;14.00;99.90;;;;;;5002093;28;20628;-64
2023/07/05 05:11:11;;;;;;;0.80;0.32;;;14.00;99.90;;;;;;5001435;28;20046;-66
2023/07/05 05:13:37;;;;;;;0.10;0.10;;;14.10;99.90;;;;;;4994250;28;20049;-64
2023/07/05 05:16:03;;;;;;;0.63;0.63;;;14.10;99.90;;;;;;5002358;28;20030;-65
2023/07/05 05:18:31;;;;;;;0.32;0.13;;;14.30;99.90;;;;;;5001086;28;20053;-66
2023/07/05 05:20:57;;;;;;;0.63;0.20;;;14.60;99.90;;;;;;5005380;28;20383;-65
2023/07/05 05:23:23;;;;;;;0.98;0.32;;;14.60;99.90;;;;;;4993803;28;20043;-65
2023/07/05 05:25:49;;;;;;;0.63;0.32;;;14.50;99.90;;;;;;5000146;28;20044;-66
2023/07/05 05:28:15;;;;;;;0.85;0.60;;;14.30;99.90;;;;;;5003100;28;20050;-65
2023/07/05 05:30:43;;;;;;;0.47;0.30;;;14.30;99.90;;;;;;5005057;28;20121;-65
2023/07/05 05:33:09;;;;;;;0.88;0.32;;;14.30;99.90;;;;;;4998159;28;20405;-65
2023/07/05 05:35:35;;;;;;;2.28;0.25;;;14.40;99.90;;;;;;5003709;28;20050;-65
2023/07/05 05:38:03;;;;;;;0.10;0.10;;;14.30;99.90;;;;;;5001488;28;20350;-65
2023/07/05 05:40:30;;;;;;;0.17;0.10;;;14.30;99.90;;;;;;4997687;28;20159;-65
2023/07/05 05:42:57;;;;;;;0.77;0.40;;;14.20;99.90;;;;;;4996872;28;20046;-65
2023/07/05 05:45:23;;;;;;;0.22;0.20;;;14.20;99.90;;;;;;5003108;28;20049;-66
2023/07/05 05:47:49;;;;;;;0.55;0.32;;;14.20;99.90;;;;;;5007486;28;20042;-65
2023/07/05 05:50:15;;;;;;;1.35;0.20;;;14.10;99.90;;;;;;5007739;28;20042;-65
2023/07/05 05:52:41;;;;;;;0.20;0.20;;;14.00;99.90;;;;;;5004815;28;20115;-66
2023/07/05 05:55:07;;;;;;;0.68;0.32;;;14.00;99.90;;;;;;5005888;28;20038;-66
2023/07/05 05:57:33;;;;;;;1.77;0.50;;;14.00;99.90;;;;;;5006437;28;20042;-65
2023/07/05 05:59:59;;;;;;;0.55;0.50;;;14.00;99.90;;;;;;5006389;28;20102;-66
2023/07/05 06:02:25;;;;;;;0.73;0.10;;;14.00;99.90;;;;;;5006158;28;20042;-65
2023/07/05 06:04:52;;;;;;;0.00;0.00;;;14.00;99.90;;;;;;5005785;28;20319;-66
2023/07/05 06:07:17;;;;;;;1.35;0.75;;;14.00;99.90;;;;;;5004197;28;20417;-65
2023/07/05 06:09:47;;;;;;;1.13;0.25;;;14.00;99.90;;;;;;5002402;28;20108;-66
2023/07/05 06:12:13;;;;;;;0.70;0.17;;;14.10;99.90;;;;;;5003463;28;20048;-65
2023/07/05 06:14:39;;;;;;;1.48;0.50;;;14.10;99.90;;;;;;5004952;28;20406;-66
2023/07/05 06:17:05;;;;;;;0.70;0.10;;;14.30;99.90;;;;;;5002097;28;20049;-64
2023/07/05 06:19:31;;;;;;;3.03;0.90;;;14.30;99.90;;;;;;5002486;28;20042;-66
2023/07/05 06:22:00;;;;;;;0.57;0.35;;;14.40;99.90;;;;;;4998041;28;20065;-65
2023/07/05 06:24:25;;;;;;;0.68;0.28;;;14.60;99.90;;;;;;5002103;28;20478;-65
2023/07/05 06:26:52;;;;;;;1.38;0.50;;;14.80;99.90;;;;;;5001002;28;20101;-67
2023/07/05 06:29:18;;;;;;;0.75;0.38;;;14.90;99.90;;;;;;5000498;28;20057;-67
2023/07/05 06:31:44;;;;;;;0.82;0.35;;;14.90;99.90;;;;;;4996713;28;20038;-65
2023/07/05 06:34:10;;;;;;;0.73;0.52;;;15.00;99.90;;;;;;4999331;28;20052;-66
2023/07/05 06:36:36;;;;;;;3.63;1.38;;;15.10;99.90;;;;;;4999129;28;20030;-66
2023/07/05 06:39:02;;;;;;;1.23;0.40;;;15.20;99.90;;;;;;4994638;28;20428;-67
2023/07/05 06:41:28;;;;;;;1.88;0.57;;;15.20;99.90;;;;;;4998251;28;20478;-66
2023/07/05 06:43:53;;;;;;;2.55;0.60;;;15.20;99.90;;;;;;4999113;28;20088;-66
2023/07/05 06:46:19;;;;;;;1.10;0.65;;;15.10;99.90;;;;;;5002263;28;20042;-66
2023/07/05 06:48:45;;;;;;;0.50;0.10;;;15.00;99.90;;;;;;4994925;28;20431;-67
2023/07/05 06:51:11;;;;;;;1.30;0.32;;;15.00;99.90;;;;;;4997795;28;20450;-66
2023/07/05 06:53:37;;;;;;;1.17;0.32;;;14.90;99.90;;;;;;5001312;28;20120;-66
2023/07/05 06:56:03;;;;;;;0.57;0.35;;;14.90;99.90;;;;;;5005339;28;20117;-68
2023/07/05 06:58:28;;;;;;;0.22;0.20;;;14.80;99.90;;;;;;4996442;28;20081;-66
2023/07/05 07:00:54;;;;;;;1.13;0.50;;;14.70;99.90;;;;;;5001387;28;20050;-67
2023/07/05 07:03:20;;;;;;;0.35;0.30;;;14.60;99.90;;;;;;4987545;28;20061;-67
2023/07/05 07:05:53;;;;;;;1.35;0.60;;;14.60;99.90;;;;;;5002289;28;20129;-66
2023/07/05 07:08:20;;;;;;;1.13;0.55;;;14.60;99.90;;;;;;4997558;28;20038;-67
2023/07/05 07:10:47;;;;;;;0.73;0.30;;;14.70;99.90;;;;;;5003009;28;20070;-66
2023/07/05 07:13:14;;;;;;;0.28;0.25;;;14.70;99.90;;;;;;5005478;28;20046;-66
2023/07/05 07:15:41;;;;;;;0.57;0.30;;;14.70;99.90;;;;;;5001162;28;20050;-66
2023/07/05 07:18:08;;;;;;;0.57;0.30;;;14.80;99.90;;;;;;5009192;28;20409;-65
2023/07/05 07:20:33;;;;;;;1.27;0.50;;;14.80;99.90;;;;;;5006838;28;20674;-67
2023/07/05 07:22:59;;;;;;;0.82;0.38;;;14.70;99.90;;;;;;5004606;28;20050;-67
2023/07/05 07:25:26;;;;;;;0.60;0.30;;;14.70;99.90;;;;;;4995935;28;20046;-66
2023/07/05 07:27:52;;;;;;;0.65;0.20;;;14.60;99.90;;;;;;5004427;28;20078;-66
2023/07/05 07:30:18;;;;;;;1.48;0.50;;;14.40;99.90;;;;;;5005725;28;20069;-66
2023/07/05 07:32:46;;;;;;;0.68;0.43;;;14.30;99.90;;;;;;5005758;28;20256;-65
2023/07/05 07:35:13;;;;;;;0.32;0.17;;;14.20;99.90;;;;;;5000307;28;20061;-65
2023/07/05 07:37:39;;;;;;;0.40;0.20;;;14.10;99.90;;;;;;5003356;28;20188;-67
2023/07/05 07:40:06;;;;;;;0.32;0.15;;;13.90;99.90;;;;;;5002652;28;20125;-68
2023/07/05 07:42:32;;;;;;;0.35;0.10;;;13.80;99.90;;;;;;5007434;28;20085;-65
2023/07/05 07:44:58;;;;;;;0.40;0.28;;;13.60;99.90;;;;;;4997621;28;20042;-63
2023/07/05 07:47:24;;;;;;;0.28;0.20;;;13.50;99.90;;;;;;5003693;28;20045;-65
2023/07/05 07:49:50;;;;;;;0.08;0.00;;;13.30;99.90;;;;;;5005119;28;20030;-65
2023/07/05 07:52:18;;;;;;;0.10;0.00;;;13.10;99.90;;;;;;5006869;28;20057;-64
2023/07/05 07:54:44;;;;;;;0.00;0.00;;;12.90;99.90;;;;;;5005829;28;20134;-64
2023/07/05 07:57:09;;;;;;;0.00;0.00;;;12.80;99.90;;;;;;5010155;28;20033;-63
2023/07/05 07:59:40;;;;;;;0.00;0.00;;;12.60;99.90;;;;;;5011122;28;20057;-63
2023/07/05 08:02:13;;;;;;;0.15;0.00;;;12.50;99.90;;;;;;5011644;28;20069;-63
2023/07/05 08:04:44;;;;;;;0.13;0.00;;;12.40;99.90;;;;;;5005635;28;20096;-62
2023/07/05 08:07:10;;;;;;;0.63;0.13;;;12.40;99.90;;;;;;5009730;28;20038;-62
2023/07/05 08:09:36;;;;;;;0.32;0.00;;;12.30;99.90;;;;;;5007025;28;20049;-63
2023/07/05 08:12:02;;;;;;;0.15;0.00;;;12.20;99.90;;;;;;4984758;28;20064;-63
2023/07/05 08:14:28;;;;;;;0.10;0.00;;;12.20;99.90;;;;;;4995230;28;20486;-62
2023/07/05 08:16:54;;;;;;;0.00;0.00;;;12.10;99.90;;;;;;5006770;28;20065;-63
2023/07/05 08:19:20;;;;;;;0.73;0.10;;;12.10;99.90;;;;;;5007600;28;20518;-63
2023/07/05 08:21:47;;;;;;;0.00;0.00;;;12.00;99.90;;;;;;5008660;28;20278;-63
2023/07/05 08:24:14;;;;;;;0.00;0.00;;;12.00;99.90;;;;;;5003860;28;20069;-63
2023/07/05 08:26:41;;;;;;;0.20;0.13;;;11.90;99.90;;;;;;5001480;28;20048;-63
2023/07/05 08:29:08;;;;;;;0.20;0.20;;;11.90;99.90;;;;;;5004240;28;20378;-63
2023/07/05 08:31:34;;;;;;;0.03;0.03;;;11.90;99.90;;;;;;5004892;28;20038;-63
2023/07/05 08:34:01;;;;;;;0.25;0.22;;;11.90;99.90;;;;;;5000189;28;20073;-63
2023/07/05 08:36:36;;;;;;;0.43;0.13;;;11.90;99.90;;;;;;5003126;28;20045;-62
2023/07/05 08:39:05;;;;;;;0.00;0.00;;;12.00;99.90;;;;;;5007684;28;20034;-62
2023/07/05 08:41:45;;;;;;;0.00;0.00;;;11.90;99.90;;;;;;4998063;28;20039;-62
2023/07/05 08:44:29;;;;;;;0.05;0.00;;;11.80;99.90;;;;;;5001215;28;20038;-62
2023/07/05 08:47:04;;;;;;;0.20;0.20;;;11.80;99.90;;;;;;5001714;28;20042;-62
2023/07/05 08:49:47;;;;;;;0.03;0.03;;;11.80;99.90;;;;;;5002964;28;20089;-64
2023/07/05 08:52:39;;;;;;;0.30;0.22;;;11.80;99.90;;;;;;4995572;28;20086;-62
2023/07/05 08:55:11;;;;;;;0.03;0.00;;;11.90;99.90;;;;;;5006111;28;20104;-64
2023/07/05 08:57:54;;;;;;;1.60;0.38;;;11.90;99.90;;;;;;5003267;28;20038;-62
2023/07/05 09:00:35;;;;;;;0.08;0.00;;;11.90;99.90;;;;;;5000359;28;20042;-62
2023/07/05 09:03:00;;;;;;;0.05;0.05;;;11.90;99.90;;;;;;5005366;28;20533;-63
2023/07/05 09:05:37;;;;;;;0.10;0.10;;;11.90;99.90;;;;;;5006478;28;20045;-62
2023/07/05 09:08:12;;;;;;;0.00;0.00;;;12.00;99.90;;;;;;5005346;28;20145;-62
2023/07/05 09:10:47;;;;;;;2.35;0.10;;;12.00;99.90;;;;;;4996333;28;20041;-62
2023/07/05 09:13:25;;;;;;;0.03;0.03;;;12.00;99.90;;;;;;4996583;28;20049;-62
2023/07/05 09:16:01;;;;;;;0.03;0.03;;;12.10;99.90;;;;;;5002948;28;20045;-63
2023/07/05 09:18:49;;;;;;;0.35;0.35;;;12.20;99.90;;;;;;4999685;28;20050;-62
2023/07/05 09:21:33;;;;;;;1.02;0.38;;;12.20;99.90;;;;;;5006737;28;20508;-63
2023/07/05 09:24:19;;;;;;;2.08;0.10;;;12.30;99.90;;;;;;4998915;28;20087;-62
2023/07/05 09:27:05;;;;;;;0.00;0.00;;;12.30;99.90;;;;;;4982094;28;20446;-63
2023/07/05 09:29:43;;;;;;;0.52;0.05;;;12.40;99.90;;;;;;4998289;28;20077;-63
2023/07/05 09:32:17;;;;;;;0.32;0.10;;;12.30;99.90;;;;;;5004589;28;20041;-63
2023/07/05 09:34:50;;;;;;;0.00;0.00;;;12.40;99.90;;;;;;5002564;28;20038;-63
2023/07/05 09:37:19;;;;;;;0.43;0.10;;;12.40;99.90;;;;;;5000188;28;20042;-64
2023/07/05 09:40:09;;;;;;;1.65;0.20;;;12.40;99.90;;;;;;5009564;28;20038;-65
2023/07/05 09:42:58;;;;;;;0.00;0.00;;;12.40;99.90;;;;;;4998146;28;20068;-63
2023/07/05 09:45:26;;;;;;;0.47;0.20;;;12.40;99.90;;;;;;5002710;28;20081;-61
2023/07/05 09:48:05;;;;;;;0.30;0.10;;;12.40;99.90;;;;;;5003192;28;20043;-62
2023/07/05 09:50:32;;;;;;;0.52;0.17;;;12.40;99.90;;;;;;5002120;28;20047;-61
2023/07/05 09:53:20;;;;;;;1.45;0.30;;;12.40;99.90;;;;;;4997405;28;20042;-62
2023/07/05 09:56:17;;;;;;;0.25;0.17;;;12.50;99.90;;;;;;5003646;28;20054;-62
2023/07/05 09:58:44;;;;;;;1.13;0.17;;;12.50;99.90;;;;;;4994815;28;20134;-61
2023/07/05 10:01:22;;;;;;;0.10;0.03;;;12.50;99.90;;;;;;4995568;28;20048;-62
2023/07/05 10:03:57;;;;;;;0.10;0.00;;;12.50;99.90;;;;;;5004336;28;20038;-62
2023/07/05 10:06:27;;;;;;;0.32;0.10;;;12.60;99.90;;;;;;4999453;28;20046;-62
2023/07/05 10:08:54;;;;;;;0.77;0.30;;;12.60;99.90;;;;;;5003701;28;20038;-62
2023/07/05 10:11:34;;;;;;;0.75;0.25;;;12.70;99.90;;;;;;5000447;28;20534;-62
2023/07/05 10:14:15;;;;;;;0.50;0.00;;;12.80;99.90;;;;;;5003252;28;20121;-62
2023/07/05 10:16:48;;;;;;;0.47;0.45;;;12.80;99.90;;;;;;5005899;28;20463;-61
2023/07/05 10:19:31;;;;;;;1.58;0.55;;;12.80;99.90;;;;;;4998869;28;20050;-63
2023/07/05 10:22:26;;;;;;;2.28;0.10;;;12.90;99.90;;;;;;5004288;28;20053;-62
2023/07/05 10:24:54;;;;;;;;;;;12.90;99.90;;;;;;4999444;28;20050;-62
2023/07/05 10:27:27;;;;;;;0.65;0.10;;;13.00;99.90;;;;;;4990393;28;20305;-63
2023/07/05 10:30:05;;;;;;;0.22;0.08;;;13.00;99.90;;;;;;4998299;28;20173;-61
2023/07/05 10:32:31;;;;;;;0.08;0.05;;;13.00;99.90;;;;;;5005954;28;20041;-61
2023/07/05 10:34:58;;;;;;;0.10;0.00;;;13.00;99.90;;;;;;5003832;28;20042;-62
2023/07/05 10:37:33;;;;;;;0.52;0.25;;;13.10;99.90;;;;;;5002811;28;20056;-62
2023/07/05 10:40:08;;;;;;;0.43;0.05;;;13.10;99.90;;;;;;5006704;28;20044;-62
2023/07/05 10:42:36;;;;;;;0.10;0.00;;;13.20;99.90;;;;;;5005314;28;20046;-64
2023/07/05 10:45:05;;;;;;;0.75;0.08;;;13.20;99.90;;;;;;5012719;28;20073;-62
2023/07/05 10:47:32;;;;;;;1.65;0.10;;;13.20;99.90;;;;;;5001558;28;20128;-62
2023/07/05 10:50:05;;;;;;;0.00;0.00;;;13.30;99.90;;;;;;5006442;28;20042;-61
2023/07/05 10:52:34;;;;;;;0.10;0.08;;;13.30;99.90;;;;;;5007049;28;20244;-63
2023/07/05 10:55:13;;;;;;;0.20;0.20;;;13.40;99.90;;;;;;5004133;28;20109;-62
2023/07/05 10:57:52;;;;;;;0.13;0.05;;;13.50;99.90;;;;;;4998584;28;20037;-62
2023/07/05 11:00:40;;;;;;;0.35;0.35;;;13.70;99.90;;;;;;5004074;28;20091;-62
2023/07/05 11:03:38;;;;;;;0.13;0.10;;;13.80;99.90;;;;;;5009139;28;20113;-62
2023/07/05 11:06:05;;;;;;;0.57;0.57;;;13.80;99.90;;;;;;5009393;28;20058;-62
2023/07/05 11:08:37;;;;;;;1.58;0.10;;;13.80;99.90;;;;;;5004291;28;20073;-63
2023/07/05 11:11:19;;;;;;;0.40;0.20;;;13.70;99.90;;;;;;5005207;28;20510;-63
2023/07/05 11:13:47;;;;;;;0.38;0.17;;;13.70;99.90;;;;;;5000284;28;20033;-62
2023/07/05 11:16:25;;;;;;;0.80;0.10;;;13.70;99.90;;;;;;5001104;28;20045;-62
2023/07/05 11:19:16;;;;;;;0.10;0.10;;;13.60;99.90;;;;;;5003334;28;20041;-63
2023/07/05 11:21:44;;;;;;;0.55;0.22;;;13.60;99.90;;;;;;5002157;28;20634;-62
2023/07/05 11:24:12;;;;;;;0.00;0.00;;;13.40;99.90;;;;;;4999418;28;20779;-61
2023/07/05 11:26:45;;;;;;;0.30;0.10;;;13.30;99.90;;;;;;4998039;28;20494;-62
2023/07/05 11:29:30;;;;;;;0.17;0.08;;;13.20;99.90;;;;;;5009578;28;20037;-62
2023/07/05 11:32:02;;;;;;;1.17;0.00;;;13.10;99.90;;;;;;5002813;28;20173;-62
2023/07/05 11:34:29;;;;;;;0.10;0.00;;;12.90;99.90;;;;;;5000189;28;20054;-63
2023/07/05 11:37:06;;;;;;;0.17;0.17;;;12.90;99.90;;;;;;5001801;28;20105;-62
2023/07/05 11:39:32;;;;;;;0.10;0.10;;;12.80;99.90;;;;;;5003320;28;20073;-61
2023/07/05 11:42:19;;;;;;;0.10;0.03;;;12.70;99.90;;;;;;4999633;28;20084;-62
2023/07/05 11:45:09;;;;;;;0.05;0.05;;;12.60;99.90;;;;;;5003391;28;20042;-62
2023/07/05 11:47:35;;;;;;;0.35;0.08;;;12.50;99.90;;;;;;5002846;28;20679;-62
2023/07/05 11:50:13;;;;;;;0.25;0.10;;;12.40;99.90;;;;;;5005915;28;20038;-62
2023/07/05 11:53:06;;;;;;;0.00;0.00;;;12.50;99.90;;;;;;4997479;28;20422;-62
2023/07/05 11:55:38;;;;;;;0.30;0.10;;;12.40;99.90;;;;;;5001953;28;20116;-62
2023/07/05 11:58:18;;;;;;;0.10;0.00;;;12.40;99.90;;;;;;5003602;28;20109;-62
2023/07/05 12:00:50;;;;;;;0.85;0.10;;;12.50;99.90;;;;;;5007073;28;20084;-62
2023/07/05 12:03:22;;;;;;;0.20;0.00;;;12.40;99.90;;;;;;4993853;28;20042;-62
2023/07/05 12:06:06;;;;;;;0.30;0.03;;;12.40;99.90;;;;;;5004116;28;20056;-62
2023/07/05 12:08:38;;;;;;;0.32;0.25;;;12.50;99.90;;;;;;5002465;28;20077;-62
2023/07/05 12:11:04;;;;;;;0.20;0.20;;;12.50;99.90;;;;;;4999773;28;20105;-62
2023/07/05 12:13:32;;;;;;;0.43;0.10;;;12.70;99.90;;;;;;5010227;28;20038;-61
2023/07/05 12:15:59;;;;;;;0.20;0.20;;;12.70;99.90;;;;;;5005426;28;20042;-61
2023/07/05 12:18:27;;;;;;;0.32;0.25;;;12.80;99.90;;;;;;5005544;28;20057;-61
2023/07/05 12:20:54;;;;;;;0.40;0.10;;;12.80;99.90;;;;;;5004590;28;20124;-63
2023/07/05 12:23:23;;;;;;;0.00;0.00;;;12.90;99.90;;;;;;4995645;28;20050;-62
2023/07/05 12:25:51;;;;;;;0.43;0.15;;;12.90;99.90;;;;;;5003735;28;20038;-61
2023/07/05 12:28:29;;;;;;;0.00;0.00;;;12.90;99.90;;;;;;5006231;28;20041;-62
2023/07/05 12:30:56;;;;;;;0.00;0.00;;;12.90;99.90;;;;;;5004649;28;20061;-62
2023/07/05 12:33:22;;;;;;;0.20;0.00;;;13.00;99.90;;;;;;5001142;28;20052;-62
2023/07/05 12:36:12;;;;;;;0.68;0.10;;;13.00;99.90;;;;;;5005238;28;20382;-62
2023/07/05 12:38:41;;;;;;;0.22;0.10;;;12.90;99.90;;;;;;4999846;28;20088;-63
2023/07/05 12:41:15;;;;;;;0.15;0.00;;;13.00;99.90;;;;;;4996658;28;20038;-64
2023/07/05 12:43:41;;;;;;;3.50;0.22;;;13.10;99.90;;;;;;5001842;28;20149;-62
2023/07/05 12:46:20;;;;;;;3.22;0.70;;;13.20;99.90;;;;;;5002300;28;20502;-62
2023/07/05 12:48:48;;;;;;;0.10;0.00;;;13.20;99.90;;;;;;5000492;28;20085;-62
2023/07/05 12:51:19;;;;;;;0.20;0.00;;;13.20;99.90;;;;;;4999409;28;20060;-62
2023/07/05 12:53:50;;;;;;;0.35;0.10;;;13.10;99.90;;;;;;5006507;28;20089;-62
2023/07/05 12:56:22;;;;;;;0.20;0.10;;;13.00;99.90;;;;;;5000780;28;20418;-62
2023/07/05 12:58:59;;;;;;;0.45;0.10;;;12.90;99.90;;;;;;4996717;28;20112;-63
2023/07/05 13:01:40;;;;;;;0.80;0.50;;;13.00;99.90;;;;;;4999947;28;20045;-62
2023/07/05 13:04:12;;;;;;;0.13;0.03;;;12.90;99.90;;;;;;5002074;28;20041;-62
2023/07/05 13:06:38;;;;;;;0.38;0.10;;;13.00;99.90;;;;;;5004631;28;20197;-63